Kayenta, AZ (86033)

12:13 PM MDT on April 26, 2017 (GMT -0600)
Monument Valley RentTent/RV Campground | | Change Station

Elev 5269 ft 37.00 °N, 110.16 °W | Updated 28 seconds ago

Clear
Clear
68.7 °F
Feels Like 68.7 °F
N
3.8
Wind Variable Wind from NE
Gusts 13.0 mph

Today
High -- | Low -- °F
--% Chance of Precip.
Yesterday
High -- | Low -- °F
Precip. -- in
Pressure 29.82 in
Visibility 10.0 miles
Clouds Few 12000 ft
Dew Point 26 °F
Humidity 20%
Rainfall 0.00 in
Snow Depth Not available.
6:32 AM 8:05 PM
New Moon, 0% visible
METAR KPGA 261753Z AUTO VRB05KT 10SM FEW120 16/M07 A2992 RMK AO2 SLP096 T01561067 10167 20061 58005 TSNO
Pressure 29.82 in
Visibility 10.0 miles
Clouds Few 12000 ft
Dew Point 26 °F
Humidity 20%
Rainfall 0.00 in
Snow Depth Not available.
6:32 AM 8:05 PM
New Moon, 0% visible
METAR KPGA 261753Z AUTO VRB05KT 10SM FEW120 16/M07 A2992 RMK AO2 SLP096 T01561067 10167 20061 58005 TSNO

Get Severe Weather Alerts

Thanks for signing up!

Be on the lookout for a verification email in your inbox.

You'll start receiving the daily forecast at 8 AM.

×

10-Day Weather Forecast

Almanac

Astronomy

Apr. 26, 2017 Rise Set
Actual Time
Civil Twilight
Nautical Twilight
Astronomical Twilight
Moon
Length of Visible Light
Length of Day
Tomorrow will be .
, % of the Moon is Illuminated

Today's Extremes

State Highs State Lows

Community

WunderPhotos

WunderBlog® & News

Nearby

Air Quality

  Air Quality AQ Index Pollutant
Not available.

Snow Depth

Station Depth Elevation

Earthquake Activity

City Distance Mag. Time & Date
Minimum magnitude displayed is 2.5.

Coastal Water Temperatures

Place Temperature

Stations

Nearby Weather Stations

Station Location Temp. Windchill Dew Point Humidity Wind Precip. Elev Updated Type
                   

Watches & Warnings

There are currently no watches in effect.